Nearby METAR Reports

 

EICK - Cork Airport, Ireland
Distance from station: W 140km
Updated: 30/05/2024 03:00
Partly cloudy
Partly cloudy
 Wind from NW
Wind: NW 22 km/h
Temperature: 10°C
Wind Chill: 7°C
Dew Point: 8°C
Humidity: 88%
Barometer: 1017 hPa
Clouds: Partly cloudy
Visibility: 10 km
Cloud details: Few Clouds 488 m
Partly cloudy 1829 m
2024/05/30 02:00 EICK 300200Z 31012KT 9999 FEW016 SCT060 10/08 Q1017 NOSIG
EIDW - Dublin Airport, Ireland
Distance from station: N 140km
Updated: 30/05/2024 03:00
Light rain, Showers, Mostly cloudy
Light rain, Showers, Mostly cloudy
 Wind from WNW
Wind: WNW 28 km/h
Temperature: 11°C
Dew Point: 9°C
Humidity: 88%
Barometer: 1012 hPa
Summary: Light rain, Showers
Clouds: Mostly cloudy
Visibility: 10 km
Cloud details: Few Clouds 335 m
Few Clouds 610 m
Mostly cloudy 762 m
2024/05/30 02:00 EIDW 300200Z 29015KT 9999 -SHRA FEW011 FEW020CB BKN025 11/09 Q1012 NOSIG
 
EINN - Shannon Airport, Ireland
Distance from station: W 135km
Updated: 30/05/2024 03:00
Partly cloudy
Partly cloudy
 Wind from NW
Wind: NW 22 km/h
Temperature: 11°C
Dew Point: 9°C
Humidity: 88%
Barometer: 1017 hPa
Clouds: Partly cloudy
Visibility: 10 km
Cloud details: Few Clouds 396 m
Partly cloudy 1341 m
2024/05/30 02:00 EINN 300200Z 31012KT 9999 FEW013 SCT044 11/09 Q1017 NOSIG
EIKN - Connaught Airport, Ireland
Distance from station: NW 200km
Updated: 29/05/2024 18:30
NOT Current
Light rain, Showers, Mostly cloudy
Light rain, Showers, Mostly cloudy
 Wind from NW
Wind: NW 20 km/h
Temperature: 12°C
Dew Point: 10°C
Humidity: 88%
Barometer: 1013 hPa
Summary: Light rain, Showers
Clouds: Mostly cloudy
Visibility: 10 km
Cloud details: Partly cloudy 427 m
Partly cloudy 792 m
Mostly cloudy 1219 m
2024/05/29 17:30 EIKN 291730Z 32011KT 290V360 9999 -SHRA SCT014 SCT026 BKN040 12/10 Q1013 NOSIG
 
EIWF - Waterford Airport, Ireland
Distance from station: SE 14km
Updated: 29/05/2024 20:30
NOT Current
Mostly cloudy
Mostly cloudy
 Wind from NNW
Wind: NNW 11 km/h
Temperature: 14°C
Dew Point: 9°C
Humidity: 72%
Barometer: 1013 hPa
Clouds: Mostly cloudy
Visibility: 10 km
Cloud details: Few Clouds 1219 m
Mostly cloudy 2042 m
2024/05/29 19:30 EIWF 291930Z 33006KT 290V010 9999 FEW040 BKN067 14/09 Q1013